createdAt,value
2023-04-02T00:01:22.514Z,4.65
2023-04-02T00:03:48.995Z,4.70
2023-04-02T00:06:34.148Z,4.78
2023-04-02T00:09:03.327Z,4.47
2023-04-02T00:11:36.141Z,5.00
2023-04-02T00:14:15.264Z,4.93
2023-04-02T00:16:42.123Z,5.60
2023-04-02T00:19:16.592Z,4.63
2023-04-02T00:21:45.665Z,5.50
2023-04-02T00:24:19.737Z,5.13
2023-04-02T00:26:52.238Z,5.38
2023-04-02T00:29:19.823Z,3.38
2023-04-02T00:31:51.678Z,5.60
2023-04-02T00:34:33.292Z,5.75
2023-04-02T00:37:00.263Z,6.00
2023-04-02T00:39:30.531Z,6.05
2023-04-02T00:41:58.956Z,5.10
2023-04-02T00:44:29.491Z,5.55
2023-04-02T00:46:56.274Z,4.82
2023-04-02T00:49:38.258Z,5.13
2023-04-02T00:52:26.789Z,4.15
2023-04-02T00:55:17.974Z,5.00
2023-04-02T00:57:45.328Z,4.03
2023-04-02T01:00:15.089Z,5.20
2023-04-02T01:02:42.370Z,5.50
2023-04-02T01:05:14.694Z,5.20
2023-04-02T01:08:02.507Z,6.13
2023-04-02T01:13:20.346Z,5.60
2023-04-02T01:16:27.449Z,5.78
2023-04-02T01:19:17.515Z,6.60
2023-04-02T01:21:57.107Z,5.95
2023-04-02T01:24:29.403Z,5.20
2023-04-02T01:26:59.040Z,6.40
2023-04-02T01:29:27.756Z,6.38
2023-04-02T01:31:58.248Z,6.38
2023-04-02T01:34:26.928Z,6.97
2023-04-02T01:37:24.530Z,6.47
2023-04-02T01:39:53.755Z,6.85
2023-04-02T01:42:31.720Z,6.53
2023-04-02T01:45:05.410Z,6.65
2023-04-02T01:47:32.615Z,7.15
2023-04-02T01:50:11.860Z,8.10
2023-04-02T01:52:41.683Z,7.97
2023-04-02T01:55:10.178Z,8.73
2023-04-02T01:57:36.729Z,7.75
2023-04-02T02:00:04.980Z,8.20
2023-04-02T02:02:31.652Z,6.68
2023-04-02T02:04:58.437Z,7.82
2023-04-02T02:07:25.060Z,7.43
2023-04-02T02:09:51.899Z,6.25
2023-04-02T02:12:18.561Z,6.72
2023-04-02T02:14:50.328Z,7.05
2023-04-02T02:17:22.740Z,6.93
2023-04-02T02:19:58.405Z,6.47
2023-04-02T02:22:42.166Z,7.00
2023-04-02T02:25:16.906Z,6.68
2023-04-02T02:27:59.031Z,6.38
2023-04-02T02:30:38.881Z,7.03
2023-04-02T02:33:15.088Z,7.82
2023-04-02T02:35:58.897Z,7.10
2023-04-02T02:38:34.908Z,8.15
2023-04-02T02:43:32.766Z,8.38
2023-04-02T02:46:00.692Z,8.88
2023-04-02T02:48:36.037Z,8.43
2023-04-02T02:51:08.987Z,8.98
2023-04-02T02:53:48.914Z,8.20
2023-04-02T02:56:15.803Z,8.52
2023-04-02T02:58:42.443Z,6.97
2023-04-02T03:01:09.617Z,6.80
2023-04-02T03:03:36.601Z,7.57
2023-04-02T03:06:06.285Z,7.00
2023-04-02T03:08:40.565Z,7.97
2023-04-02T03:11:18.963Z,7.03
2023-04-02T03:13:49.493Z,6.47
2023-04-02T03:16:28.219Z,6.40
2023-04-02T03:19:22.590Z,6.65
2023-04-02T03:21:58.442Z,7.90
2023-04-02T03:24:57.758Z,6.97
2023-04-02T03:27:29.918Z,8.45
2023-04-02T03:30:22.375Z,8.18
2023-04-02T03:32:54.175Z,9.02
2023-04-02T03:35:59.037Z,8.13
2023-04-02T03:38:30.136Z,5.75
2023-04-02T03:41:04.935Z,6.75
2023-04-02T03:43:37.026Z,8.13
2023-04-02T03:46:23.408Z,7.18
2023-04-02T03:48:55.742Z,7.82
2023-04-02T03:51:32.675Z,8.52
2023-04-02T03:53:59.446Z,7.90
2023-04-02T03:56:30.469Z,7.15
2023-04-02T03:59:28.069Z,6.50
2023-04-02T04:02:26.840Z,5.90
2023-04-02T04:04:55.542Z,5.72
2023-04-02T04:07:33.208Z,5.50
2023-04-02T04:10:01.330Z,5.57
2023-04-02T04:12:39.077Z,6.05
2023-04-02T04:15:23.060Z,5.40
2023-04-02T04:18:17.271Z,5.72
2023-04-02T04:21:07.186Z,6.40
2023-04-02T04:23:38.988Z,7.30
2023-04-02T04:26:21.181Z,7.40
2023-04-02T04:29:12.682Z,8.00
2023-04-02T04:31:46.680Z,7.20
2023-04-02T04:34:21.746Z,7.65
2023-04-02T04:36:53.571Z,8.00
2023-04-02T04:39:31.799Z,8.10
2023-04-02T04:42:00.811Z,8.57
2023-04-02T04:44:44.190Z,8.02
2023-04-02T04:47:28.854Z,8.02
2023-04-02T04:50:05.972Z,7.13
2023-04-02T04:52:36.921Z,7.72
2023-04-02T04:55:29.252Z,8.27
2023-04-02T04:58:02.539Z,7.30
2023-04-02T05:00:59.652Z,8.43
2023-04-02T05:03:48.548Z,7.85
2023-04-02T05:06:35.126Z,8.70
2023-04-02T05:09:19.730Z,8.70
2023-04-02T05:11:54.974Z,7.45
2023-04-02T05:14:37.355Z,7.38
2023-04-02T05:17:13.461Z,7.25
2023-04-02T05:19:50.006Z,7.90
2023-04-02T05:22:41.236Z,8.60
2023-04-02T05:25:24.681Z,7.82
2023-04-02T05:28:10.883Z,7.35
2023-04-02T05:30:44.761Z,7.63
2023-04-02T05:33:28.438Z,7.63
2023-04-02T05:36:11.295Z,7.43
2023-04-02T05:38:43.373Z,7.55
2023-04-02T05:41:28.585Z,5.82
2023-04-02T05:44:16.623Z,6.40
2023-04-02T05:46:51.181Z,6.60
2023-04-02T05:49:47.018Z,7.10
2023-04-02T05:52:20.119Z,7.18
2023-04-02T05:54:52.210Z,7.50
2023-04-02T05:57:39.412Z,8.40
2023-04-02T06:00:15.958Z,7.18
2023-04-02T06:02:52.911Z,7.45
2023-04-02T06:05:24.045Z,8.52
2023-04-02T06:08:17.100Z,8.60
2023-04-02T06:11:09.319Z,8.45
2023-04-02T06:13:35.905Z,9.93
2023-04-02T06:16:03.345Z,7.78
2023-04-02T06:18:34.421Z,7.43
2023-04-02T06:21:01.846Z,6.15
2023-04-02T06:23:51.247Z,7.32
2023-04-02T06:26:39.540Z,6.93
2023-04-02T06:29:23.503Z,8.18
2023-04-02T06:31:58.586Z,8.30
2023-04-02T06:34:27.461Z,11.00
2023-04-02T06:37:04.307Z,10.07
2023-04-02T06:39:30.874Z,9.60
2023-04-02T06:42:13.795Z,8.13
2023-04-02T06:44:40.955Z,8.88
2023-04-02T06:47:22.721Z,10.32
2023-04-02T06:50:21.508Z,11.77
2023-04-02T06:52:52.345Z,11.65
2023-04-02T06:55:37.613Z,12.02
2023-04-02T06:58:04.358Z,10.60
2023-04-02T07:00:38.511Z,9.65
2023-04-02T07:03:08.467Z,6.80
2023-04-02T07:05:35.177Z,6.50
2023-04-02T07:08:01.914Z,6.68
2023-04-02T07:10:28.467Z,7.72
2023-04-02T07:12:54.945Z,7.50
2023-04-02T07:15:21.673Z,6.78
2023-04-02T07:17:48.373Z,6.55
2023-04-02T07:20:30.368Z,7.65
2023-04-02T07:25:24.898Z,6.10
2023-04-02T07:27:52.748Z,5.80
2023-04-02T07:30:19.534Z,5.85
2023-04-02T07:32:46.130Z,7.78
2023-04-02T07:35:12.830Z,8.60
2023-04-02T07:37:39.785Z,8.73
2023-04-02T07:40:19.116Z,9.20
2023-04-02T07:42:45.657Z,9.98
2023-04-02T07:45:12.498Z,10.18
2023-04-02T07:47:39.072Z,10.82
2023-04-02T07:50:06.662Z,11.25
2023-04-02T07:52:40.519Z,9.73
2023-04-02T07:55:07.932Z,10.50
2023-04-02T07:57:38.519Z,9.93
2023-04-02T08:00:05.697Z,11.20
2023-04-02T08:02:32.277Z,8.70
2023-04-02T08:04:58.818Z,7.30
2023-04-02T08:07:27.498Z,7.03
2023-04-02T08:09:54.049Z,8.90
2023-04-02T08:12:20.633Z,9.60
2023-04-02T08:14:47.283Z,9.95
2023-04-02T08:17:13.754Z,7.80
2023-04-02T08:19:53.666Z,8.82
2023-04-02T08:22:21.432Z,9.25
2023-04-02T08:24:47.915Z,7.65
2023-04-02T08:27:14.478Z,8.48
2023-04-02T08:29:40.969Z,8.77
2023-04-02T08:32:07.490Z,7.57
2023-04-02T08:34:34.040Z,7.90
2023-04-02T08:37:00.559Z,8.02
2023-04-02T08:39:27.027Z,7.93
2023-04-02T08:42:02.882Z,8.55
2023-04-02T08:44:32.227Z,7.75
2023-04-02T08:47:05.232Z,7.70
2023-04-02T08:49:35.925Z,6.85
2023-04-02T08:52:02.531Z,6.63
2023-04-02T08:54:34.349Z,7.15
2023-04-02T08:57:23.364Z,6.13
2023-04-02T08:59:58.766Z,5.53
2023-04-02T09:02:45.772Z,6.05
2023-04-02T09:05:20.494Z,6.07
2023-04-02T09:07:49.956Z,5.80
2023-04-02T09:10:17.546Z,5.15
2023-04-02T09:12:49.069Z,5.97
2023-04-02T09:15:33.377Z,5.15
2023-04-02T09:18:11.089Z,5.00
2023-04-02T09:20:37.719Z,5.00
2023-04-02T09:23:05.605Z,5.60
2023-04-02T09:25:32.190Z,4.93
2023-04-02T09:28:02.154Z,5.95
2023-04-02T09:30:31.757Z,5.80
2023-04-02T09:33:03.654Z,5.30
2023-04-02T09:35:32.462Z,5.60
2023-04-02T09:38:18.627Z,5.60
2023-04-02T09:40:54.016Z,6.38
2023-04-02T09:43:26.337Z,5.82
2023-04-02T09:46:12.956Z,5.68
2023-04-02T09:48:52.398Z,6.07
2023-04-02T09:51:21.731Z,4.97
2023-04-02T09:53:50.495Z,4.88
2023-04-02T09:56:24.424Z,5.38
2023-04-02T09:59:21.581Z,4.72
2023-04-02T10:01:59.027Z,5.68
2023-04-02T10:04:45.333Z,4.80
2023-04-02T10:07:42.547Z,4.35
2023-04-02T10:10:30.185Z,4.43
2023-04-02T10:13:07.243Z,3.97
2023-04-02T10:15:42.151Z,4.68
2023-04-02T10:18:56.616Z,4.93
2023-04-02T10:21:27.083Z,3.78
2023-04-02T10:23:54.925Z,4.55
2023-04-02T10:26:47.335Z,5.38
2023-04-02T10:29:35.744Z,4.50
2023-04-02T10:32:08.207Z,4.68
2023-04-02T10:34:43.650Z,4.30
2023-04-02T10:37:36.428Z,4.75
2023-04-02T10:40:11.493Z,4.80
2023-04-02T10:43:22.555Z,4.95
2023-04-02T10:46:04.096Z,4.43
2023-04-02T10:48:50.574Z,4.97
2023-04-02T10:51:42.888Z,5.72
2023-04-02T10:54:31.503Z,5.70
2023-04-02T10:57:23.729Z,5.80
2023-04-02T11:00:03.687Z,5.68
2023-04-02T11:02:30.202Z,6.07
2023-04-02T11:05:02.136Z,6.28
2023-04-02T11:07:33.857Z,6.78
2023-04-02T11:10:01.546Z,6.60
2023-04-02T11:12:46.480Z,6.35
2023-04-02T11:15:18.233Z,7.07
2023-04-02T11:17:45.804Z,6.82
2023-04-02T11:20:43.474Z,6.55
2023-04-02T11:23:14.905Z,6.22
2023-04-02T11:25:43.041Z,5.95
2023-04-02T11:28:27.753Z,5.93
2023-04-02T11:30:56.054Z,5.85
2023-04-02T11:33:38.194Z,6.57
2023-04-02T11:36:44.445Z,5.57
2023-04-02T11:39:17.413Z,5.72
2023-04-02T11:42:04.506Z,5.55
2023-04-02T11:44:31.040Z,5.38
2023-04-02T11:47:16.356Z,4.80
2023-04-02T11:49:55.183Z,5.35
2023-04-02T11:52:29.694Z,5.03
2023-04-02T11:55:20.777Z,5.25
2023-04-02T11:58:01.689Z,4.55
2023-04-02T12:00:56.817Z,4.97
2023-04-02T12:03:45.576Z,4.13
2023-04-02T12:06:49.111Z,4.50
2023-04-02T12:09:20.341Z,3.28
2023-04-02T12:11:48.137Z,4.25
2023-04-02T12:14:51.067Z,3.97
2023-04-02T12:17:24.559Z,3.92
2023-04-02T12:19:54.523Z,3.72
2023-04-02T12:22:25.347Z,4.63
2023-04-02T12:24:55.659Z,3.38
2023-04-02T12:27:26.094Z,3.78
2023-04-02T12:29:53.060Z,4.05
2023-04-02T12:32:30.007Z,4.07
2023-04-02T12:34:58.715Z,3.78
2023-04-02T12:37:27.804Z,3.33
2023-04-02T12:40:15.867Z,3.60
2023-04-02T12:42:42.359Z,4.18
2023-04-02T12:45:30.102Z,4.03
2023-04-02T12:50:24.274Z,3.70
2023-04-02T12:52:52.943Z,4.18
2023-04-02T12:55:21.986Z,4.07
2023-04-02T12:57:48.756Z,4.13
2023-04-02T13:00:21.255Z,4.28
2023-04-02T13:03:16.726Z,4.50
2023-04-02T13:05:48.876Z,4.10
2023-04-02T13:08:40.384Z,3.92
2023-04-02T13:11:07.117Z,3.80
2023-04-02T13:13:36.936Z,4.13
2023-04-02T13:16:28.100Z,3.20
2023-04-02T13:19:38.836Z,3.42
2023-04-02T13:22:31.626Z,4.25
2023-04-02T13:24:58.130Z,5.07
2023-04-02T13:27:24.667Z,4.75
2023-04-02T13:29:51.137Z,3.65
2023-04-02T13:32:17.650Z,3.88
2023-04-02T13:34:44.158Z,6.28
2023-04-02T13:37:12.678Z,10.25
2023-04-02T13:39:39.223Z,8.30
2023-04-02T13:42:06.959Z,6.53
2023-04-02T13:44:35.437Z,6.63
2023-04-02T13:47:02.014Z,5.40
2023-04-02T13:49:29.227Z,4.25
2023-04-02T13:51:59.138Z,5.07
2023-04-02T13:54:30.138Z,5.07
2023-04-02T13:56:57.310Z,5.22
2023-04-02T13:59:24.359Z,6.10
2023-04-02T14:01:52.917Z,4.10
2023-04-02T14:04:25.270Z,4.22
2023-04-02T14:07:22.678Z,3.47
2023-04-02T14:10:07.969Z,3.30
2023-04-02T14:12:37.202Z,3.55
2023-04-02T14:15:15.486Z,4.00
2023-04-02T14:18:05.792Z,3.58
2023-04-02T14:20:41.272Z,3.90
2023-04-02T14:23:31.750Z,4.38
2023-04-02T14:26:13.388Z,3.47
2023-04-02T14:28:58.704Z,4.07
2023-04-02T14:31:34.579Z,3.65
2023-04-02T14:34:33.107Z,3.58
2023-04-02T14:37:45.310Z,3.35
2023-04-02T14:40:40.505Z,3.20
2023-04-02T14:43:15.780Z,2.92
2023-04-02T14:45:59.610Z,3.10
2023-04-02T14:48:52.511Z,3.15
2023-04-02T14:51:29.029Z,2.90
2023-04-02T14:54:11.203Z,2.70
2023-04-02T14:56:49.170Z,3.00
2023-04-02T14:59:25.867Z,2.75
2023-04-02T15:02:04.020Z,2.72
2023-04-02T15:04:42.854Z,3.00
2023-04-02T15:07:40.344Z,3.13
2023-04-02T15:10:17.824Z,3.00
2023-04-02T15:12:49.611Z,3.17
2023-04-02T15:15:40.392Z,2.70
2023-04-02T15:18:20.785Z,2.20
2023-04-02T15:21:08.024Z,2.42
2023-04-02T15:23:54.461Z,3.20
2023-04-02T15:26:58.858Z,2.75
2023-04-02T15:29:44.044Z,2.75
2023-04-02T15:32:41.272Z,3.30
2023-04-02T15:35:15.894Z,2.50
2023-04-02T15:37:57.573Z,2.85
2023-04-02T15:41:04.438Z,3.00
2023-04-02T15:43:46.515Z,3.13
2023-04-02T15:46:45.042Z,3.05
2023-04-02T15:49:21.267Z,3.00
2023-04-02T15:52:08.983Z,3.30
2023-04-02T15:57:54.444Z,2.97
2023-04-02T16:00:25.196Z,3.08
2023-04-02T16:03:16.480Z,2.97
2023-04-02T16:06:12.366Z,3.83
2023-04-02T16:09:02.699Z,3.38
2023-04-02T16:11:30.507Z,7.72
2023-04-02T16:14:14.206Z,4.10
2023-04-02T16:16:42.666Z,3.53
2023-04-02T16:19:27.018Z,2.78
2023-04-02T16:22:29.275Z,4.85
2023-04-02T16:25:18.027Z,4.95
2023-04-02T16:28:04.985Z,3.67
2023-04-02T16:30:36.147Z,2.70
2023-04-02T16:33:23.643Z,2.70
2023-04-02T16:36:08.317Z,2.50
2023-04-02T16:38:37.835Z,2.45
2023-04-02T16:41:10.241Z,2.35
2023-04-02T16:43:50.415Z,2.88
2023-04-02T16:46:50.528Z,2.83
2023-04-02T16:49:25.978Z,2.70
2023-04-02T16:52:16.864Z,2.88
2023-04-02T16:54:58.163Z,2.20
2023-04-02T16:57:36.434Z,2.17
2023-04-02T17:00:20.558Z,1.90
2023-04-02T17:03:06.135Z,2.13
2023-04-02T17:05:40.231Z,3.17
2023-04-02T17:08:51.325Z,2.53
2023-04-02T17:11:28.464Z,3.75
2023-04-02T17:14:05.551Z,2.40
2023-04-02T17:16:44.331Z,2.20
2023-04-02T17:19:13.506Z,2.25
2023-04-02T17:21:43.054Z,2.47
2023-04-02T17:24:23.979Z,2.35
2023-04-02T17:27:11.882Z,1.70
2023-04-02T17:29:42.974Z,2.17
2023-04-02T17:32:25.873Z,2.65
2023-04-02T17:34:52.521Z,2.50
2023-04-02T17:37:28.831Z,2.20
2023-04-02T17:40:03.914Z,1.77
2023-04-02T17:43:30.754Z,2.17
2023-04-02T17:46:18.655Z,1.83
2023-04-02T17:48:47.000Z,1.90
2023-04-02T17:51:13.482Z,2.20
2023-04-02T17:54:10.082Z,2.10
2023-04-02T17:57:07.421Z,2.20
2023-04-02T18:00:06.388Z,2.50
2023-04-02T18:03:21.312Z,2.40
2023-04-02T18:06:29.344Z,2.35
2023-04-02T18:09:18.320Z,2.63
2023-04-02T18:12:03.620Z,2.67
2023-04-02T18:14:54.974Z,2.30
2023-04-02T18:17:41.846Z,2.60
2023-04-02T18:20:28.505Z,2.70
2023-04-02T18:23:04.082Z,3.28
2023-04-02T18:25:52.695Z,2.65
2023-04-02T18:28:54.621Z,2.83
2023-04-02T18:32:02.785Z,2.80
2023-04-02T18:35:06.592Z,3.60
2023-04-02T18:38:04.916Z,6.07
2023-04-02T18:41:16.763Z,5.10
2023-04-02T18:43:54.882Z,5.15
2023-04-02T18:46:28.886Z,6.05
2023-04-02T18:48:59.811Z,6.25
2023-04-02T18:51:31.071Z,4.20
2023-04-02T18:54:25.220Z,4.78
2023-04-02T18:56:51.717Z,3.53
2023-04-02T18:59:41.998Z,3.30
2023-04-02T19:02:25.687Z,3.47
2023-04-02T19:05:17.563Z,3.50
2023-04-02T19:07:46.137Z,3.50
2023-04-02T19:10:33.575Z,3.17
2023-04-02T19:13:00.857Z,3.28
2023-04-02T19:15:39.530Z,2.60
2023-04-02T19:18:29.149Z,2.60
2023-04-02T19:21:10.023Z,3.92
2023-04-02T19:24:02.011Z,3.25
2023-04-02T19:26:41.376Z,2.58
2023-04-02T19:29:20.613Z,2.80
2023-04-02T19:31:58.029Z,2.63
2023-04-02T19:34:41.194Z,2.95
2023-04-02T19:37:19.296Z,3.50
2023-04-02T19:40:01.089Z,2.85
2023-04-02T19:42:49.655Z,3.05
2023-04-02T19:45:29.811Z,3.40
2023-04-02T19:47:59.579Z,3.40
2023-04-02T19:50:26.351Z,2.70
2023-04-02T19:52:52.842Z,2.78
2023-04-02T19:55:20.604Z,3.20
2023-04-02T19:57:47.111Z,2.90
2023-04-02T20:00:14.666Z,4.22
2023-04-02T20:02:41.447Z,3.40
2023-04-02T20:05:08.325Z,4.32
2023-04-02T20:07:34.943Z,5.60
2023-04-02T20:10:01.478Z,5.07
2023-04-02T20:12:28.000Z,3.47
2023-04-02T20:14:54.468Z,3.33
2023-04-02T20:17:21.001Z,3.92
2023-04-02T20:19:53.430Z,3.33
2023-04-02T20:22:19.964Z,2.95
2023-04-02T20:24:46.461Z,2.75
2023-04-02T20:27:12.995Z,2.58
2023-04-02T20:29:39.583Z,2.83
2023-04-02T20:32:06.119Z,2.63
2023-04-02T20:34:32.760Z,2.70
2023-04-02T20:36:59.552Z,2.08
2023-04-02T20:39:26.167Z,2.17
2023-04-02T20:41:52.648Z,2.08
2023-04-02T20:44:22.005Z,2.90
2023-04-02T20:46:48.503Z,2.00
2023-04-02T20:49:15.026Z,2.10
2023-04-02T20:51:41.570Z,2.40
2023-04-02T20:54:08.186Z,2.22
2023-04-02T20:56:34.738Z,2.08
2023-04-02T20:59:01.250Z,2.60
2023-04-02T21:01:30.129Z,2.40
2023-04-02T21:03:58.759Z,2.45
2023-04-02T21:06:34.282Z,2.85
2023-04-02T21:09:08.284Z,3.17
2023-04-02T21:11:35.923Z,3.08
2023-04-02T21:14:03.915Z,2.97
2023-04-02T21:16:30.892Z,2.95
2023-04-02T21:19:02.746Z,3.20
2023-04-02T21:21:29.654Z,3.13
2023-04-02T21:23:58.928Z,3.40
2023-04-02T21:26:26.868Z,2.67
2023-04-02T21:28:53.782Z,2.85
2023-04-02T21:31:26.397Z,2.78
2023-04-02T21:33:55.652Z,3.03
2023-04-02T21:36:25.886Z,3.08
2023-04-02T21:43:51.263Z,2.53
2023-04-02T21:46:19.955Z,2.83
2023-04-02T21:48:47.802Z,2.78
2023-04-02T21:51:17.408Z,3.10
2023-04-02T21:53:44.937Z,3.40
2023-04-02T21:56:14.456Z,3.08
2023-04-02T21:58:41.559Z,2.92
2023-04-02T22:01:16.938Z,2.85
2023-04-02T22:03:47.368Z,3.35
2023-04-02T22:06:17.489Z,3.65
2023-04-02T22:08:44.569Z,2.83
2023-04-02T22:11:17.306Z,2.97
2023-04-02T22:13:45.580Z,3.03
2023-04-02T22:16:14.617Z,3.33
2023-04-02T22:18:41.589Z,3.50
2023-04-02T22:21:09.063Z,3.60
2023-04-02T22:23:36.364Z,3.22
2023-04-02T22:26:04.458Z,2.95
2023-04-02T22:28:31.012Z,3.55
2023-04-02T22:31:04.658Z,3.83
2023-04-02T22:33:32.355Z,3.35
2023-04-02T22:35:59.408Z,3.65
2023-04-02T22:38:26.192Z,3.63
2023-04-02T22:40:52.739Z,3.70
2023-04-02T22:43:19.205Z,4.15
2023-04-02T22:45:47.358Z,3.67
2023-04-02T22:48:13.916Z,4.10
2023-04-02T22:50:40.431Z,3.85
2023-04-02T22:53:06.936Z,3.90
2023-04-02T22:55:33.517Z,4.10
2023-04-02T22:57:59.976Z,4.13
2023-04-02T23:00:26.461Z,3.85
2023-04-02T23:02:52.987Z,4.38
2023-04-02T23:05:19.549Z,4.50
2023-04-02T23:07:47.299Z,4.25
2023-04-02T23:10:13.771Z,4.25
2023-04-02T23:12:40.256Z,4.65
2023-04-02T23:15:07.457Z,4.32
2023-04-02T23:17:34.107Z,4.18
2023-04-02T23:20:00.643Z,4.15
2023-04-02T23:22:27.137Z,4.72
2023-04-02T23:24:53.607Z,4.57
2023-04-02T23:27:21.747Z,4.82
2023-04-02T23:29:49.399Z,5.03
2023-04-02T23:32:16.620Z,4.35
2023-04-02T23:34:43.520Z,4.80
2023-04-02T23:37:10.194Z,4.55
2023-04-02T23:39:36.831Z,4.50
2023-04-02T23:42:03.473Z,4.50
2023-04-02T23:44:30.220Z,4.55
2023-04-02T23:46:56.911Z,4.25
2023-04-02T23:49:23.390Z,4.68
2023-04-02T23:51:49.923Z,4.22
2023-04-02T23:54:16.602Z,4.88
2023-04-02T23:56:43.081Z,4.40
2023-04-02T23:59:09.742Z,4.45
